createdAt,value
2018-10-07T00:00:25.931Z,0
2018-10-07T00:01:26.508Z,0
2018-10-07T00:02:27.085Z,0
2018-10-07T00:03:27.864Z,0
2018-10-07T00:04:28.485Z,0
2018-10-07T00:05:29.065Z,0
2018-10-07T00:06:29.686Z,0
2018-10-07T00:07:30.314Z,0
2018-10-07T00:08:30.892Z,0
2018-10-07T00:09:31.470Z,0
2018-10-07T00:10:32.051Z,0
2018-10-07T00:11:32.632Z,0
2018-10-07T00:12:33.253Z,0
2018-10-07T00:13:33.884Z,0
2018-10-07T00:14:34.462Z,0
2018-10-07T00:15:35.041Z,0
2018-10-07T00:16:35.621Z,0
2018-10-07T00:17:36.200Z,0
2018-10-07T00:18:36.784Z,0
2018-10-07T00:19:37.410Z,0
2018-10-07T00:20:37.991Z,0
2018-10-07T00:21:38.571Z,0
2018-10-07T00:22:39.155Z,0
2018-10-07T00:23:39.775Z,0
2018-10-07T00:24:40.352Z,0
2018-10-07T00:25:40.982Z,0
2018-10-07T00:26:41.603Z,0
2018-10-07T00:27:42.182Z,0
2018-10-07T00:28:42.813Z,0
2018-10-07T00:29:43.431Z,0
2018-10-07T00:30:44.011Z,0
2018-10-07T00:31:44.630Z,0
2018-10-07T00:32:45.211Z,0
2018-10-07T00:33:45.842Z,0
2018-10-07T00:34:46.420Z,0
2018-10-07T00:35:47.048Z,0
2018-10-07T00:36:47.630Z,0
2018-10-07T00:37:48.208Z,0
2018-10-07T00:38:48.788Z,0
2018-10-07T00:39:49.368Z,0
2018-10-07T00:40:49.949Z,0
2018-10-07T00:41:50.525Z,0
2018-10-07T00:42:51.101Z,0
2018-10-07T00:43:51.680Z,0
2018-10-07T00:44:52.311Z,0
2018-10-07T00:45:52.891Z,0
2018-10-07T00:46:53.472Z,0
2018-10-07T00:47:54.142Z,0
2018-10-07T00:48:54.723Z,0
2018-10-07T00:49:55.301Z,0
2018-10-07T00:50:55.881Z,0
2018-10-07T00:51:56.459Z,0
2018-10-07T00:52:57.036Z,0
2018-10-07T00:53:57.615Z,0
2018-10-07T00:54:58.234Z,0
2018-10-07T00:55:58.812Z,0
2018-10-07T00:56:59.444Z,0
2018-10-07T00:58:00.023Z,0
2018-10-07T00:59:00.673Z,0
2018-10-07T01:00:01.219Z,0
2018-10-07T01:01:01.798Z,0
2018-10-07T01:02:02.373Z,0
2018-10-07T01:03:02.954Z,0
2018-10-07T01:04:03.532Z,0
2018-10-07T01:05:04.111Z,0
2018-10-07T01:06:04.739Z,0
2018-10-07T01:07:05.318Z,0
2018-10-07T01:08:05.938Z,0
2018-10-07T01:09:06.519Z,0
2018-10-07T01:10:07.137Z,0
2018-10-07T01:11:07.715Z,0
2018-10-07T01:12:08.341Z,0
2018-10-07T01:13:08.922Z,0
2018-10-07T01:14:09.500Z,0
2018-10-07T01:15:10.078Z,0
2018-10-07T01:16:10.658Z,0
2018-10-07T01:17:11.234Z,0
2018-10-07T01:18:11.812Z,0
2018-10-07T01:19:12.392Z,0
2018-10-07T01:20:12.970Z,0
2018-10-07T01:21:13.602Z,0
2018-10-07T01:22:14.224Z,0
2018-10-07T01:23:14.853Z,0
2018-10-07T01:24:15.432Z,0
2018-10-07T01:25:16.013Z,0
2018-10-07T01:26:16.592Z,0
2018-10-07T01:27:17.170Z,0
2018-10-07T01:28:17.748Z,0
2018-10-07T01:29:18.327Z,0
2018-10-07T01:30:18.913Z,0
2018-10-07T01:31:19.492Z,0
2018-10-07T01:32:20.071Z,0
2018-10-07T01:33:20.648Z,0
2018-10-07T01:34:21.276Z,0
2018-10-07T01:35:21.854Z,0
2018-10-07T01:36:22.433Z,0
2018-10-07T01:37:23.014Z,0
2018-10-07T01:38:23.743Z,0
2018-10-07T01:39:24.323Z,0
2018-10-07T01:40:24.900Z,0
2018-10-07T01:41:25.477Z,0
2018-10-07T01:42:26.056Z,0
2018-10-07T01:43:26.633Z,0
2018-10-07T01:44:27.210Z,0
2018-10-07T01:45:27.787Z,0
2018-10-07T01:46:28.366Z,0
2018-10-07T01:47:28.944Z,0
2018-10-07T01:48:29.523Z,0
2018-10-07T01:49:30.153Z,0
2018-10-07T01:50:30.794Z,0
2018-10-07T01:51:31.361Z,0
2018-10-07T01:52:31.947Z,0
2018-10-07T01:53:32.563Z,0
2018-10-07T01:54:33.139Z,0
2018-10-07T01:55:33.721Z,0
2018-10-07T01:56:34.362Z,0
2018-10-07T01:57:34.959Z,0
2018-10-07T01:58:35.589Z,0
2018-10-07T01:59:36.168Z,0
2018-10-07T02:00:36.749Z,0
2018-10-07T02:01:37.328Z,0
2018-10-07T02:02:37.906Z,0
2018-10-07T02:03:38.483Z,0
2018-10-07T02:04:39.060Z,0
2018-10-07T02:05:39.641Z,0
2018-10-07T02:06:40.232Z,0
2018-10-07T02:07:40.797Z,0
2018-10-07T02:08:41.426Z,0
2018-10-07T02:09:42.054Z,0
2018-10-07T02:10:42.659Z,0
2018-10-07T02:11:43.254Z,0
2018-10-07T02:12:43.832Z,0
2018-10-07T02:13:44.421Z,0
2018-10-07T02:14:45.041Z,0
2018-10-07T02:15:45.621Z,0
2018-10-07T02:16:46.200Z,0
2018-10-07T02:17:46.829Z,0
2018-10-07T02:18:47.407Z,0
2018-10-07T02:19:48.076Z,0
2018-10-07T02:20:48.654Z,0
2018-10-07T02:21:49.233Z,0
2018-10-07T02:22:49.813Z,0
2018-10-07T02:23:50.395Z,0
2018-10-07T02:24:50.971Z,0
2018-10-07T02:25:51.599Z,0
2018-10-07T02:26:52.179Z,0
2018-10-07T02:27:52.759Z,0
2018-10-07T02:28:53.387Z,0
2018-10-07T02:29:53.965Z,0
2018-10-07T02:30:54.546Z,0
2018-10-07T02:31:55.125Z,0
2018-10-07T02:32:55.704Z,0
2018-10-07T02:33:56.284Z,0
2018-10-07T02:34:56.862Z,0
2018-10-07T02:35:57.591Z,0
2018-10-07T02:36:58.173Z,0
2018-10-07T02:37:58.755Z,0
2018-10-07T02:38:59.371Z,0
2018-10-07T02:39:59.950Z,0
2018-10-07T02:41:00.529Z,0
2018-10-07T02:42:01.106Z,0
2018-10-07T02:43:01.684Z,0
2018-10-07T02:44:02.262Z,0
2018-10-07T02:45:02.926Z,0
2018-10-07T02:46:03.508Z,0
2018-10-07T02:47:04.079Z,0
2018-10-07T02:48:04.658Z,0
2018-10-07T02:49:05.236Z,0
2018-10-07T02:50:05.867Z,0
2018-10-07T02:51:06.446Z,0
2018-10-07T02:52:07.029Z,0
2018-10-07T02:53:07.621Z,0
2018-10-07T02:54:08.185Z,0
2018-10-07T02:55:08.765Z,0
2018-10-07T02:56:09.396Z,0
2018-10-07T02:57:09.971Z,0
2018-10-07T02:58:10.551Z,0
2018-10-07T02:59:11.131Z,0
2018-10-07T03:00:11.715Z,0
2018-10-07T03:01:12.336Z,0
2018-10-07T03:02:12.957Z,0
2018-10-07T03:03:13.561Z,0
2018-10-07T03:04:14.141Z,0
2018-10-07T03:05:14.770Z,0
2018-10-07T03:06:15.398Z,0
2018-10-07T03:07:15.977Z,0
2018-10-07T03:08:16.555Z,0
2018-10-07T03:09:17.136Z,0
2018-10-07T03:10:17.714Z,0
2018-10-07T03:11:18.383Z,0
2018-10-07T03:12:18.962Z,0
2018-10-07T03:13:19.539Z,0
2018-10-07T03:14:20.123Z,0
2018-10-07T03:15:20.700Z,0
2018-10-07T03:16:21.320Z,0
2018-10-07T03:17:21.900Z,0
2018-10-07T03:18:22.476Z,0
2018-10-07T03:19:23.054Z,0
2018-10-07T03:20:23.632Z,0
2018-10-07T03:21:24.215Z,0
2018-10-07T03:22:24.830Z,0
2018-10-07T03:23:30.460Z,0
2018-10-07T03:24:31.087Z,0
2018-10-07T03:25:31.714Z,0
2018-10-07T03:26:32.294Z,0
2018-10-07T03:27:32.923Z,0
2018-10-07T03:28:33.544Z,0
2018-10-07T03:29:34.164Z,0
2018-10-07T03:30:34.703Z,0
2018-10-07T03:31:35.282Z,0
2018-10-07T03:32:35.859Z,0
2018-10-07T03:33:36.487Z,0
2018-10-07T03:34:37.066Z,0
2018-10-07T03:35:37.646Z,0
2018-10-07T03:36:38.226Z,0
2018-10-07T03:37:38.809Z,0
2018-10-07T03:38:39.382Z,0
2018-10-07T03:39:39.961Z,0
2018-10-07T03:40:40.540Z,0
2018-10-07T03:41:41.123Z,0
2018-10-07T03:42:41.893Z,0
2018-10-07T03:43:42.475Z,0
2018-10-07T03:44:43.097Z,0
2018-10-07T03:45:43.715Z,0
2018-10-07T03:46:44.339Z,0
2018-10-07T03:47:44.921Z,0
2018-10-07T03:48:45.497Z,0
2018-10-07T03:49:46.077Z,0
2018-10-07T03:50:46.653Z,0
2018-10-07T03:51:47.232Z,0
2018-10-07T03:52:47.808Z,0
2018-10-07T03:53:48.387Z,0
2018-10-07T03:54:49.019Z,0
2018-10-07T03:55:49.591Z,0
2018-10-07T03:56:50.172Z,0
2018-10-07T03:57:50.799Z,0
2018-10-07T03:58:51.378Z,0
2018-10-07T03:59:52.006Z,0
2018-10-07T04:00:52.586Z,0
2018-10-07T04:01:53.163Z,0
2018-10-07T04:02:53.744Z,0
2018-10-07T04:03:54.363Z,0
2018-10-07T04:04:54.940Z,0
2018-10-07T04:05:55.572Z,0
2018-10-07T04:06:56.151Z,0
2018-10-07T04:07:56.727Z,0
2018-10-07T04:08:57.308Z,0
2018-10-07T04:09:57.937Z,0
2018-10-07T04:10:58.516Z,0
2018-10-07T04:11:59.096Z,0
2018-10-07T04:12:59.675Z,0
2018-10-07T04:14:00.305Z,0
2018-10-07T04:15:00.884Z,0
2018-10-07T04:16:01.518Z,0
2018-10-07T04:17:02.136Z,0
2018-10-07T04:18:02.753Z,0
2018-10-07T04:19:03.337Z,0
2018-10-07T04:20:03.911Z,0
2018-10-07T04:21:04.494Z,0
2018-10-07T04:22:05.117Z,0
2018-10-07T04:23:05.696Z,0
2018-10-07T04:24:06.274Z,0
2018-10-07T04:25:06.853Z,0
2018-10-07T04:26:07.430Z,0
2018-10-07T04:27:08.006Z,0
2018-10-07T04:28:08.635Z,0
2018-10-07T04:29:09.215Z,0
2018-10-07T04:30:09.796Z,0
2018-10-07T04:31:10.372Z,0
2018-10-07T04:32:10.999Z,0
2018-10-07T04:33:11.629Z,0
2018-10-07T04:34:12.208Z,0
2018-10-07T04:35:12.786Z,0
2018-10-07T04:36:18.508Z,0
2018-10-07T04:37:19.088Z,0
2018-10-07T04:38:19.665Z,0
2018-10-07T04:39:20.243Z,0
2018-10-07T04:40:20.822Z,0
2018-10-07T04:41:21.400Z,0
2018-10-07T04:42:21.977Z,0
2018-10-07T04:43:22.704Z,0
2018-10-07T04:44:23.279Z,0
2018-10-07T04:45:23.860Z,0
2018-10-07T04:46:24.492Z,0
2018-10-07T04:47:25.013Z,0
2018-10-07T04:48:25.591Z,0
2018-10-07T04:49:26.172Z,0
2018-10-07T04:50:26.753Z,0
2018-10-07T04:51:27.378Z,0
2018-10-07T04:52:27.955Z,0
2018-10-07T04:53:28.532Z,0
2018-10-07T04:54:29.110Z,0
2018-10-07T04:55:29.692Z,0
2018-10-07T04:56:30.266Z,0
2018-10-07T04:57:30.848Z,0
2018-10-07T04:58:31.518Z,0
2018-10-07T04:59:32.097Z,0
2018-10-07T05:00:32.726Z,0
2018-10-07T05:01:33.304Z,0
2018-10-07T05:02:33.885Z,0
2018-10-07T05:03:34.462Z,0
2018-10-07T05:04:35.038Z,0
2018-10-07T05:05:35.614Z,0
2018-10-07T05:06:36.192Z,0
2018-10-07T05:07:36.772Z,0
2018-10-07T05:08:37.401Z,0
2018-10-07T05:09:37.982Z,0
2018-10-07T05:10:38.556Z,0
2018-10-07T05:11:39.140Z,0
2018-10-07T05:12:39.732Z,0
2018-10-07T05:13:40.294Z,0
2018-10-07T05:14:40.874Z,0
2018-10-07T05:15:41.503Z,0
2018-10-07T05:16:42.080Z,0
2018-10-07T05:17:42.657Z,0
2018-10-07T05:18:43.436Z,0
2018-10-07T05:19:44.014Z,0
2018-10-07T05:20:44.599Z,0
2018-10-07T05:21:45.173Z,0
2018-10-07T05:22:45.802Z,0
2018-10-07T05:23:46.387Z,0
2018-10-07T05:24:46.961Z,0
2018-10-07T05:25:47.542Z,0
2018-10-07T05:26:48.132Z,0
2018-10-07T05:27:48.699Z,0
2018-10-07T05:28:49.276Z,0
2018-10-07T05:29:49.855Z,0
2018-10-07T05:30:50.535Z,0
2018-10-07T05:31:51.212Z,0
2018-10-07T05:32:51.839Z,0
2018-10-07T05:33:52.417Z,0
2018-10-07T05:34:53.008Z,0
2018-10-07T05:35:53.617Z,0
2018-10-07T05:36:54.195Z,0
2018-10-07T05:37:54.775Z,0
2018-10-07T05:38:55.356Z,0
2018-10-07T05:39:55.931Z,0
2018-10-07T05:40:56.508Z,0
2018-10-07T05:41:57.085Z,0
2018-10-07T05:42:57.662Z,0
2018-10-07T05:43:58.238Z,0
2018-10-07T05:44:58.817Z,0
2018-10-07T05:45:59.396Z,0
2018-10-07T05:46:59.973Z,0
2018-10-07T05:48:00.554Z,0
2018-10-07T05:49:01.180Z,0
2018-10-07T05:50:01.814Z,0
2018-10-07T05:51:02.394Z,0
2018-10-07T05:52:03.022Z,0
2018-10-07T05:53:03.600Z,0
2018-10-07T05:54:04.180Z,0
2018-10-07T05:55:04.759Z,0
2018-10-07T05:56:05.339Z,0
2018-10-07T05:57:05.917Z,0
2018-10-07T05:58:06.500Z,0
2018-10-07T05:59:07.075Z,0
2018-10-07T06:00:07.653Z,0
2018-10-07T06:01:08.233Z,0
2018-10-07T06:02:08.849Z,0
2018-10-07T06:03:09.389Z,0
2018-10-07T06:04:10.021Z,0
2018-10-07T06:05:10.597Z,0
2018-10-07T06:06:11.179Z,0
2018-10-07T06:07:11.810Z,0
2018-10-07T06:08:12.383Z,0
2018-10-07T06:09:12.960Z,0
2018-10-07T06:10:13.588Z,0
2018-10-07T06:11:14.168Z,0
2018-10-07T06:12:14.745Z,0
2018-10-07T06:13:15.323Z,0
2018-10-07T06:14:15.901Z,0
2018-10-07T06:15:16.478Z,0
2018-10-07T06:16:17.057Z,0
2018-10-07T06:17:17.645Z,0
2018-10-07T06:18:18.257Z,0
2018-10-07T06:19:18.837Z,0
2018-10-07T06:20:19.416Z,0
2018-10-07T06:21:20.054Z,0
2018-10-07T06:22:20.622Z,0
2018-10-07T06:23:21.255Z,0
2018-10-07T06:24:21.828Z,0
2018-10-07T06:25:22.456Z,0
2018-10-07T06:26:23.035Z,0
2018-10-07T06:27:23.613Z,0
2018-10-07T06:28:24.195Z,0
2018-10-07T06:29:24.772Z,0
2018-10-07T06:30:30.405Z,0
2018-10-07T06:31:30.981Z,0
2018-10-07T06:32:31.558Z,0
2018-10-07T06:33:32.138Z,0
2018-10-07T06:34:32.765Z,0
2018-10-07T06:35:33.343Z,0
2018-10-07T06:36:33.972Z,0
2018-10-07T06:37:34.554Z,0
2018-10-07T06:38:35.140Z,0
2018-10-07T06:39:35.710Z,0
2018-10-07T06:40:36.338Z,0
2018-10-07T06:41:36.915Z,0
2018-10-07T06:42:37.644Z,0
2018-10-07T06:43:38.222Z,0
2018-10-07T06:44:38.798Z,0
2018-10-07T06:45:39.436Z,0
2018-10-07T06:46:39.956Z,0
2018-10-07T06:47:40.536Z,0
2018-10-07T06:48:41.110Z,0
2018-10-07T06:49:41.732Z,0
2018-10-07T06:50:42.309Z,0
2018-10-07T06:51:42.935Z,0
2018-10-07T06:52:43.533Z,0
2018-10-07T06:53:44.093Z,0
2018-10-07T06:54:44.673Z,0
2018-10-07T06:55:45.250Z,0
2018-10-07T06:56:45.830Z,0
2018-10-07T06:57:46.458Z,0
2018-10-07T06:58:47.037Z,0
2018-10-07T06:59:47.745Z,0
2018-10-07T07:00:48.197Z,0
2018-10-07T07:01:48.775Z,0
2018-10-07T07:02:49.353Z,0
2018-10-07T07:03:49.931Z,0
2018-10-07T07:04:50.561Z,0
2018-10-07T07:05:51.140Z,0
2018-10-07T07:06:51.767Z,0
2018-10-07T07:07:52.345Z,0
2018-10-07T07:08:52.925Z,0
2018-10-07T07:09:53.504Z,0
2018-10-07T07:10:54.083Z,0
2018-10-07T07:11:54.659Z,0
2018-10-07T07:12:55.258Z,0
2018-10-07T07:13:55.864Z,0
2018-10-07T07:14:56.443Z,0
2018-10-07T07:15:57.020Z,0
2018-10-07T07:16:57.602Z,0
2018-10-07T07:17:58.179Z,0
2018-10-07T07:18:58.758Z,0
2018-10-07T07:19:59.356Z,0
2018-10-07T07:20:59.912Z,0
2018-10-07T07:22:00.541Z,0
2018-10-07T07:23:01.168Z,0
2018-10-07T07:24:01.745Z,0
2018-10-07T07:25:02.323Z,0
2018-10-07T07:26:02.901Z,0
2018-10-07T07:27:03.478Z,0
2018-10-07T07:28:04.056Z,0
2018-10-07T07:29:04.691Z,0
2018-10-07T07:30:05.266Z,0
2018-10-07T07:31:05.843Z,0
2018-10-07T07:32:06.419Z,0
2018-10-07T07:33:07.001Z,0
2018-10-07T07:34:07.578Z,0
2018-10-07T07:35:08.157Z,0
2018-10-07T07:36:08.779Z,0
2018-10-07T07:37:09.358Z,0
2018-10-07T07:38:10.085Z,0
2018-10-07T07:39:10.663Z,0
2018-10-07T07:40:11.242Z,0
2018-10-07T07:41:11.819Z,0
2018-10-07T07:42:12.503Z,0
2018-10-07T07:43:13.027Z,0
2018-10-07T07:44:13.652Z,0
2018-10-07T07:45:14.229Z,0
2018-10-07T07:46:14.806Z,0
2018-10-07T07:47:15.438Z,0
2018-10-07T07:48:16.014Z,0
2018-10-07T07:49:16.643Z,0
2018-10-07T07:50:17.167Z,0
2018-10-07T07:51:17.744Z,0
2018-10-07T07:52:18.319Z,0
2018-10-07T07:53:18.896Z,0
2018-10-07T07:54:19.475Z,0
2018-10-07T07:55:20.055Z,0
2018-10-07T07:56:20.681Z,0
2018-10-07T07:57:21.263Z,0
2018-10-07T07:58:21.833Z,0
2018-10-07T07:59:22.411Z,0
2018-10-07T08:00:23.039Z,0
2018-10-07T08:01:23.623Z,0
2018-10-07T08:02:24.248Z,0
2018-10-07T08:03:24.826Z,0
2018-10-07T08:04:25.407Z,0
2018-10-07T08:05:26.036Z,0
2018-10-07T08:06:26.614Z,0
2018-10-07T08:07:27.191Z,0
2018-10-07T08:08:27.770Z,0
2018-10-07T08:09:28.350Z,0
2018-10-07T08:10:28.928Z,0
2018-10-07T08:11:29.508Z,0
2018-10-07T08:12:30.136Z,0
2018-10-07T08:13:30.715Z,0
2018-10-07T08:14:31.444Z,0
2018-10-07T08:15:32.023Z,0
2018-10-07T08:16:32.654Z,0
2018-10-07T08:17:33.352Z,0
2018-10-07T08:18:33.858Z,0
2018-10-07T08:19:34.434Z,0
2018-10-07T08:20:35.012Z,0
2018-10-07T08:21:35.590Z,0
2018-10-07T08:22:36.217Z,0
2018-10-07T08:23:36.882Z,0
2018-10-07T08:24:37.423Z,0
2018-10-07T08:25:38.004Z,0
2018-10-07T08:26:38.582Z,0
2018-10-07T08:27:39.159Z,0
2018-10-07T08:28:39.738Z,0
2018-10-07T08:29:40.362Z,0
2018-10-07T08:30:40.933Z,0
2018-10-07T08:31:41.562Z,0
2018-10-07T08:32:42.141Z,0
2018-10-07T08:33:42.718Z,0
2018-10-07T08:34:43.347Z,0
2018-10-07T08:35:43.933Z,0
2018-10-07T08:36:44.544Z,0
2018-10-07T08:37:45.123Z,0
2018-10-07T08:38:45.702Z,0
2018-10-07T08:39:46.331Z,0
2018-10-07T08:40:46.908Z,0
2018-10-07T08:41:47.542Z,0
2018-10-07T08:42:48.158Z,0
2018-10-07T08:43:48.738Z,0
2018-10-07T08:44:49.356Z,0
2018-10-07T08:45:49.938Z,0
2018-10-07T08:46:50.512Z,0
2018-10-07T08:47:51.093Z,0
2018-10-07T08:48:51.671Z,0
2018-10-07T08:49:52.302Z,0
2018-10-07T08:50:52.880Z,0
2018-10-07T08:51:53.458Z,0
2018-10-07T08:52:54.041Z,0
2018-10-07T08:53:54.618Z,0
2018-10-07T08:54:55.287Z,0
2018-10-07T08:55:55.871Z,0
2018-10-07T08:56:56.445Z,0
2018-10-07T08:57:57.024Z,0
2018-10-07T08:58:57.601Z,0
2018-10-07T08:59:58.181Z,0
2018-10-07T09:00:58.761Z,0
2018-10-07T09:01:59.485Z,0
2018-10-07T09:03:00.008Z,0
2018-10-07T09:04:00.587Z,0
2018-10-07T09:05:01.170Z,0
2018-10-07T09:06:01.794Z,0
2018-10-07T09:07:02.372Z,0
2018-10-07T09:08:02.951Z,0
2018-10-07T09:09:03.532Z,0
2018-10-07T09:10:04.110Z,0
2018-10-07T09:11:04.685Z,0
2018-10-07T09:12:05.262Z,0
2018-10-07T09:13:05.892Z,0
2018-10-07T09:14:06.511Z,0
2018-10-07T09:15:07.130Z,0
2018-10-07T09:16:07.705Z,0
2018-10-07T09:17:08.283Z,0
2018-10-07T09:18:08.862Z,0
2018-10-07T09:19:09.442Z,0
2018-10-07T09:20:10.019Z,0
2018-10-07T09:21:10.600Z,60
2018-10-07T09:22:11.186Z,60
2018-10-07T09:23:11.816Z,60
2018-10-07T09:24:12.400Z,60
2018-10-07T09:25:12.981Z,60
2018-10-07T09:26:13.612Z,60
2018-10-07T09:27:14.245Z,60
2018-10-07T09:28:14.775Z,65
2018-10-07T09:29:15.360Z,65
2018-10-07T09:30:15.942Z,65
2018-10-07T09:31:16.571Z,65
2018-10-07T09:32:17.166Z,65
2018-10-07T09:33:17.739Z,65
2018-10-07T09:34:18.365Z,70
2018-10-07T09:35:18.990Z,70
2018-10-07T09:36:19.572Z,70
2018-10-07T09:37:20.196Z,70
2018-10-07T09:38:20.781Z,70
2018-10-07T09:39:21.552Z,75
2018-10-07T09:40:21.992Z,75
2018-10-07T09:41:22.574Z,75
2018-10-07T09:42:23.167Z,80
2018-10-07T09:43:23.795Z,80
2018-10-07T09:44:24.379Z,80
2018-10-07T09:45:24.964Z,80
2018-10-07T09:46:25.545Z,80
2018-10-07T09:47:26.129Z,80
2018-10-07T09:48:26.712Z,80
2018-10-07T09:49:27.294Z,85
2018-10-07T09:50:27.879Z,85
2018-10-07T09:51:28.459Z,85
2018-10-07T09:52:29.172Z,85
2018-10-07T09:53:29.675Z,90
2018-10-07T09:54:30.258Z,90
2018-10-07T09:55:30.840Z,95
2018-10-07T09:56:31.423Z,95
2018-10-07T09:57:32.007Z,95
2018-10-07T09:58:32.640Z,100
2018-10-07T09:59:33.222Z,100
2018-10-07T10:00:33.807Z,100
2018-10-07T10:01:34.393Z,100
2018-10-07T10:02:35.019Z,100
2018-10-07T10:03:35.753Z,105
2018-10-07T10:04:36.391Z,115
2018-10-07T10:05:36.923Z,115
2018-10-07T10:06:37.511Z,125
2018-10-07T10:07:38.092Z,130
2018-10-07T10:08:38.676Z,135
2018-10-07T10:09:39.418Z,140
2018-10-07T10:10:39.997Z,145
2018-10-07T10:11:40.584Z,150
2018-10-07T10:12:41.170Z,155
2018-10-07T10:13:41.754Z,160
2018-10-07T10:14:42.336Z,165
2018-10-07T10:15:42.969Z,165
2018-10-07T10:16:43.552Z,170
2018-10-07T10:17:44.174Z,175
2018-10-07T10:18:44.722Z,180
2018-10-07T10:19:45.362Z,185
2018-10-07T10:20:46.041Z,190
2018-10-07T10:21:46.627Z,195
2018-10-07T10:22:47.213Z,200
2018-10-07T10:23:47.796Z,205
2018-10-07T10:24:48.380Z,215
2018-10-07T10:25:48.972Z,220
2018-10-07T10:26:49.552Z,220
2018-10-07T10:27:50.187Z,225
2018-10-07T10:28:50.772Z,230
2018-10-07T10:29:51.408Z,235
2018-10-07T10:30:51.996Z,240
2018-10-07T10:31:52.583Z,245
2018-10-07T10:32:53.170Z,255
2018-10-07T10:33:53.762Z,265
2018-10-07T10:34:54.400Z,270
2018-10-07T10:35:54.987Z,280
2018-10-07T10:36:55.631Z,290
2018-10-07T10:37:56.162Z,285
2018-10-07T10:38:56.753Z,315
2018-10-07T10:39:57.468Z,595
2018-10-07T10:40:58.019Z,1255
2018-10-07T10:41:58.609Z,1450
2018-10-07T10:42:59.197Z,1405
2018-10-07T10:43:59.784Z,1420
2018-10-07T10:45:00.423Z,1535
2018-10-07T10:46:01.063Z,1550
2018-10-07T10:47:01.656Z,1530
2018-10-07T10:48:02.318Z,1540
2018-10-07T10:49:02.878Z,1525
2018-10-07T10:50:03.469Z,1455
2018-10-07T10:51:04.062Z,1460
2018-10-07T10:52:04.654Z,1510
2018-10-07T10:54:20.677Z,1615
2018-10-07T10:55:21.262Z,1580
2018-10-07T10:56:21.998Z,1595
2018-10-07T10:57:22.592Z,1575
2018-10-07T10:58:23.190Z,1575
2018-10-07T10:59:23.784Z,1625
2018-10-07T11:00:38.145Z,1665
2018-10-07T11:02:00.506Z,1645
2018-10-07T11:03:01.144Z,1580
2018-10-07T11:04:19.559Z,1610
2018-10-07T11:05:20.114Z,1660
2018-10-07T11:07:40.117Z,1700
2018-10-07T11:08:40.716Z,1680
2018-10-07T11:09:41.307Z,1655
2018-10-07T11:10:42.099Z,1660
2018-10-07T11:11:42.689Z,1690
2018-10-07T11:12:44.494Z,1735
2018-10-07T11:13:58.952Z,1670
2018-10-07T11:14:59.443Z,1735
2018-10-07T11:17:01.630Z,1690
2018-10-07T11:18:20.005Z,1720
2018-10-07T11:22:39.286Z,1730
2018-10-07T11:24:01.714Z,1715
2018-10-07T11:25:03.122Z,1745
2018-10-07T11:26:03.788Z,1795
2018-10-07T11:27:04.323Z,1780
2018-10-07T11:29:06.509Z,1200
2018-10-07T11:30:07.100Z,935
2018-10-07T11:31:07.791Z,730
2018-10-07T11:32:08.484Z,455
2018-10-07T11:33:09.078Z,350
2018-10-07T11:34:09.670Z,325
2018-10-07T11:35:10.261Z,300
2018-10-07T11:36:10.852Z,265
2018-10-07T11:37:11.544Z,230
2018-10-07T11:38:12.136Z,195
2018-10-07T11:39:12.938Z,165
2018-10-07T11:40:13.764Z,145
2018-10-07T11:41:14.397Z,135
2018-10-07T11:42:32.767Z,110
2018-10-07T11:43:33.367Z,100
2018-10-07T11:44:33.961Z,95
2018-10-07T11:45:34.548Z,90
2018-10-07T11:46:35.184Z,90
2018-10-07T11:47:35.778Z,90
2018-10-07T11:49:37.997Z,100
2018-10-07T11:50:38.598Z,100
2018-10-07T11:51:39.230Z,105
2018-10-07T11:53:41.489Z,105
2018-10-07T11:54:42.083Z,105
2018-10-07T11:55:42.719Z,110
2018-10-07T11:57:44.925Z,110
2018-10-07T11:58:45.512Z,110
2018-10-07T11:59:46.094Z,105
2018-10-07T12:01:00.445Z,105
2018-10-07T12:02:30.869Z,105
2018-10-07T12:03:31.400Z,105
2018-10-07T12:04:32.036Z,100
2018-10-07T12:05:32.670Z,100
2018-10-07T12:06:33.251Z,100
2018-10-07T12:07:33.833Z,95
2018-10-07T12:08:34.474Z,90
2018-10-07T12:09:34.999Z,90
2018-10-07T12:10:35.631Z,85
2018-10-07T12:11:36.213Z,85
2018-10-07T12:12:36.795Z,85
2018-10-07T12:13:37.373Z,85
2018-10-07T12:14:37.997Z,85
2018-10-07T12:15:38.579Z,85
2018-10-07T12:16:39.159Z,85
2018-10-07T12:18:41.333Z,85
2018-10-07T12:19:41.923Z,80
2018-10-07T12:20:42.510Z,85
2018-10-07T12:21:43.100Z,85
2018-10-07T12:22:43.689Z,85
2018-10-07T12:23:44.279Z,80
2018-10-07T12:26:48.115Z,80
2018-10-07T12:27:48.761Z,80
2018-10-07T12:28:49.428Z,80
2018-10-07T12:29:49.978Z,80
2018-10-07T12:30:50.610Z,80
2018-10-07T12:31:51.200Z,80
2018-10-07T12:32:51.786Z,80
2018-10-07T12:33:52.373Z,80
2018-10-07T12:34:52.962Z,80
2018-10-07T12:35:53.548Z,80
2018-10-07T12:36:54.135Z,85
2018-10-07T12:37:54.721Z,85
2018-10-07T12:39:58.885Z,85
2018-10-07T12:41:13.220Z,85
2018-10-07T12:42:13.797Z,85
2018-10-07T12:43:14.375Z,85
2018-10-07T12:44:14.955Z,85
2018-10-07T12:45:15.582Z,90
2018-10-07T12:46:33.929Z,90
2018-10-07T12:49:53.830Z,95
2018-10-07T12:52:27.617Z,95
2018-10-07T12:53:28.205Z,95
2018-10-07T12:55:52.148Z,105
2018-10-07T12:56:52.738Z,110
2018-10-07T12:57:53.375Z,115
2018-10-07T12:58:54.013Z,120
2018-10-07T12:59:54.602Z,120
2018-10-07T13:00:55.190Z,125
2018-10-07T13:01:55.778Z,135
2018-10-07T13:02:56.420Z,145
2018-10-07T13:03:57.003Z,150
2018-10-07T13:04:57.592Z,155
2018-10-07T13:05:58.179Z,165
2018-10-07T13:06:58.765Z,175
2018-10-07T13:07:59.353Z,180
2018-10-07T13:11:40.775Z,210
2018-10-07T13:15:10.189Z,250
2018-10-07T13:20:13.689Z,300
2018-10-07T13:27:24.616Z,365
2018-10-07T13:31:52.639Z,410
2018-10-07T13:36:04.562Z,475
2018-10-07T13:37:05.148Z,520
2018-10-07T13:38:05.728Z,565
2018-10-07T13:39:06.322Z,650
2018-10-07T13:40:06.996Z,1055
2018-10-07T13:41:07.510Z,1380
2018-10-07T13:42:08.104Z,1405
2018-10-07T13:44:10.380Z,1535
2018-10-07T13:45:10.974Z,1515
2018-10-07T13:46:11.571Z,1485
2018-10-07T13:47:33.991Z,1575
2018-10-07T13:48:48.392Z,1645
2018-10-07T13:50:50.564Z,1600
2018-10-07T13:52:52.878Z,1670
2018-10-07T13:53:53.464Z,1610
2018-10-07T13:55:57.139Z,1645
2018-10-07T13:57:42.083Z,1635
2018-10-07T13:58:55.412Z,1570
2018-10-07T13:59:56.404Z,1520
2018-10-07T14:00:57.003Z,1490
2018-10-07T14:01:57.607Z,1535
2018-10-07T14:03:59.826Z,1510
2018-10-07T14:05:00.432Z,1510
2018-10-07T14:07:02.610Z,1485
2018-10-07T14:08:03.254Z,1520
2018-10-07T14:09:03.844Z,1515
2018-10-07T14:10:04.435Z,1495
2018-10-07T14:11:05.076Z,1530
2018-10-07T14:12:05.720Z,1490
2018-10-07T14:13:06.312Z,1495
2018-10-07T14:14:06.902Z,1525
2018-10-07T14:15:07.503Z,1520
2018-10-07T14:16:08.145Z,1445
2018-10-07T14:17:08.746Z,1435
2018-10-07T14:18:09.347Z,1440
2018-10-07T14:19:09.946Z,1415
2018-10-07T14:20:10.550Z,1415
2018-10-07T14:21:11.192Z,1490
2018-10-07T14:22:11.791Z,1505
2018-10-07T14:23:12.391Z,1490
2018-10-07T14:25:14.581Z,1470
2018-10-07T14:26:15.178Z,1460
2018-10-07T14:27:15.828Z,1430
2018-10-07T14:28:16.428Z,1430
2018-10-07T14:29:17.030Z,1425
2018-10-07T14:30:17.681Z,1385
2018-10-07T14:31:18.280Z,1365
2018-10-07T14:32:18.879Z,1350
2018-10-07T14:33:19.480Z,1335
2018-10-07T14:34:20.082Z,1335
2018-10-07T14:35:20.732Z,1315
2018-10-07T14:36:21.334Z,1320
2018-10-07T14:37:21.974Z,1295
2018-10-07T14:38:22.575Z,1285
2018-10-07T14:39:23.230Z,1310
2018-10-07T14:40:23.772Z,1275
2018-10-07T14:41:24.378Z,1250
2018-10-07T14:42:24.975Z,1280
2018-10-07T14:43:25.574Z,1265
2018-10-07T14:44:26.175Z,1280
2018-10-07T14:45:26.774Z,1290
2018-10-07T14:46:27.373Z,1325
2018-10-07T14:47:27.973Z,1310
2018-10-07T14:48:28.624Z,1215
2018-10-07T14:49:29.264Z,1190
2018-10-07T14:50:29.923Z,1200
2018-10-07T14:51:30.513Z,1195
2018-10-07T14:52:31.112Z,1170
2018-10-07T14:53:31.763Z,1210
2018-10-07T14:54:32.414Z,1215
2018-10-07T14:55:33.015Z,1185
2018-10-07T14:56:33.618Z,1180
2018-10-07T14:57:34.258Z,1140
2018-10-07T14:58:34.858Z,1125
2018-10-07T14:59:35.469Z,1105
2018-10-07T15:00:36.056Z,1085
2018-10-07T15:01:36.703Z,1080
2018-10-07T15:02:37.301Z,1070
2018-10-07T15:03:37.903Z,1080
2018-10-07T15:04:38.503Z,1060
2018-10-07T15:05:39.115Z,1045
2018-10-07T15:06:39.755Z,1075
2018-10-07T15:07:40.355Z,1060
2018-10-07T15:08:40.958Z,1000
2018-10-07T15:09:41.610Z,1020
2018-10-07T15:10:42.205Z,995
2018-10-07T15:11:42.803Z,880
2018-10-07T15:12:43.453Z,885
2018-10-07T15:13:44.054Z,1005
2018-10-07T15:14:44.703Z,1000
2018-10-07T15:15:45.300Z,990
2018-10-07T15:16:45.896Z,980
2018-10-07T15:17:46.498Z,960
2018-10-07T15:18:47.093Z,970
2018-10-07T15:19:47.701Z,940
2018-10-07T15:20:48.290Z,940
2018-10-07T15:21:48.893Z,940
2018-10-07T15:22:49.488Z,935
2018-10-07T15:23:50.132Z,925
2018-10-07T15:24:50.775Z,920
2018-10-07T15:25:51.373Z,890